PWM weather

Portland International Jetport
Portland, Maine, United States

Public forecast

Using degrees Fahrenheit for public forecast. Weather courtesy of forecast.io.

Current aviation weather report (METAR) for Portland International Jetport

Retrieved 2019/11/18 07:51 UTC (13 minutes ago):

KPWM 180751Z AUTO 02011KT 10SM OVC031 M01/M11 A3013 RMK AO2 SLP203 T10061106

Aviation forecast (TAF) for Portland International Jetport

Retrieved 2019/11/18 06:39 UTC (1 hour ago):

TAF KPWM 180536Z 1806/1906 02007KT P6SM OVC030 FM181100 01008KT P6SM -FZDZ OVC025 FM181800 01009KT 3SM -RA OVC015 FM182000 01010KT 2SM -RA OVC008